sensor_id;sensor_type;location;lat;lon;timestamp;P1;durP1;ratioP1;P2;durP2;ratioP2
71869;SDS011;59739;47.696;11.746;2022-08-25T00:01:46;5.68;;;4.53;;
71869;SDS011;59739;47.696;11.746;2022-08-25T00:04:21;5.55;;;4.63;;
71869;SDS011;59739;47.696;11.746;2022-08-25T00:06:48;6.20;;;5.40;;
71869;SDS011;59739;47.696;11.746;2022-08-25T00:09:16;5.35;;;4.85;;
71869;SDS011;59739;47.696;11.746;2022-08-25T00:11:48;6.38;;;4.78;;
71869;SDS011;59739;47.696;11.746;2022-08-25T00:14:19;5.75;;;5.22;;
71869;SDS011;59739;47.696;11.746;2022-08-25T00:16:49;7.35;;;5.53;;
71869;SDS011;59739;47.696;11.746;2022-08-25T00:19:21;5.25;;;4.75;;
71869;SDS011;59739;47.696;11.746;2022-08-25T00:21:54;5.35;;;4.85;;
71869;SDS011;59739;47.696;11.746;2022-08-25T00:24:21;5.50;;;4.90;;
71869;SDS011;59739;47.696;11.746;2022-08-25T00:26:50;5.63;;;4.97;;
71869;SDS011;59739;47.696;11.746;2022-08-25T00:29:19;5.45;;;4.93;;
71869;SDS011;59739;47.696;11.746;2022-08-25T00:31:46;5.43;;;4.93;;
71869;SDS011;59739;47.696;11.746;2022-08-25T00:34:14;5.53;;;5.05;;
71869;SDS011;59739;47.696;11.746;2022-08-25T00:36:45;5.70;;;5.15;;
71869;SDS011;59739;47.696;11.746;2022-08-25T00:39:11;5.53;;;5.03;;
71869;SDS011;59739;47.696;11.746;2022-08-25T00:41:38;5.50;;;4.75;;
71869;SDS011;59739;47.696;11.746;2022-08-25T00:44:07;5.63;;;5.07;;
71869;SDS011;59739;47.696;11.746;2022-08-25T00:46:50;5.90;;;5.40;;
71869;SDS011;59739;47.696;11.746;2022-08-25T00:54:53;5.80;;;5.20;;
71869;SDS011;59739;47.696;11.746;2022-08-25T01:00:15;5.47;;;4.80;;
71869;SDS011;59739;47.696;11.746;2022-08-25T01:02:51;5.95;;;5.10;;
71869;SDS011;59739;47.696;11.746;2022-08-25T01:05:17;5.40;;;4.90;;
71869;SDS011;59739;47.696;11.746;2022-08-25T01:07:44;5.43;;;4.90;;
71869;SDS011;59739;47.696;11.746;2022-08-25T01:10:11;5.47;;;5.05;;
71869;SDS011;59739;47.696;11.746;2022-08-25T01:12:37;5.22;;;4.53;;
71869;SDS011;59739;47.696;11.746;2022-08-25T01:15:05;5.15;;;4.65;;
71869;SDS011;59739;47.696;11.746;2022-08-25T01:17:34;5.93;;;5.20;;
71869;SDS011;59739;47.696;11.746;2022-08-25T01:20:17;5.30;;;4.80;;
71869;SDS011;59739;47.696;11.746;2022-08-25T01:22:47;5.47;;;4.93;;
71869;SDS011;59739;47.696;11.746;2022-08-25T01:26:01;5.97;;;5.20;;
71869;SDS011;59739;47.696;11.746;2022-08-25T01:28:16;7.07;;;5.22;;
71869;SDS011;59739;47.696;11.746;2022-08-25T01:30:43;5.55;;;5.05;;
71869;SDS011;59739;47.696;11.746;2022-08-25T01:33:09;6.00;;;5.40;;
71869;SDS011;59739;47.696;11.746;2022-08-25T01:35:37;5.53;;;5.03;;
71869;SDS011;59739;47.696;11.746;2022-08-25T01:38:05;5.80;;;5.30;;
71869;SDS011;59739;47.696;11.746;2022-08-25T01:40:32;5.53;;;5.03;;
71869;SDS011;59739;47.696;11.746;2022-08-25T01:45:36;6.07;;;5.53;;
71869;SDS011;59739;47.696;11.746;2022-08-25T01:48:06;5.13;;;4.63;;
71869;SDS011;59739;47.696;11.746;2022-08-25T01:50:33;5.50;;;4.70;;
71869;SDS011;59739;47.696;11.746;2022-08-25T01:55:39;5.43;;;4.93;;
71869;SDS011;59739;47.696;11.746;2022-08-25T01:58:29;6.38;;;5.38;;
71869;SDS011;59739;47.696;11.746;2022-08-25T02:00:59;6.00;;;5.50;;
71869;SDS011;59739;47.696;11.746;2022-08-25T02:03:29;5.72;;;5.07;;
71869;SDS011;59739;47.696;11.746;2022-08-25T02:05:56;5.60;;;4.88;;
71869;SDS011;59739;47.696;11.746;2022-08-25T02:08:25;5.38;;;4.88;;
71869;SDS011;59739;47.696;11.746;2022-08-25T02:10:51;5.43;;;4.93;;
71869;SDS011;59739;47.696;11.746;2022-08-25T02:13:20;6.07;;;5.57;;
71869;SDS011;59739;47.696;11.746;2022-08-25T02:15:48;6.07;;;5.57;;
71869;SDS011;59739;47.696;11.746;2022-08-25T02:18:18;6.03;;;5.32;;
71869;SDS011;59739;47.696;11.746;2022-08-25T02:20:46;7.35;;;6.20;;
71869;SDS011;59739;47.696;11.746;2022-08-25T02:23:12;5.85;;;5.30;;
71869;SDS011;59739;47.696;11.746;2022-08-25T02:25:39;5.47;;;4.97;;
71869;SDS011;59739;47.696;11.746;2022-08-25T02:28:06;6.80;;;5.60;;
71869;SDS011;59739;47.696;11.746;2022-08-25T02:30:35;6.28;;;5.68;;
71869;SDS011;59739;47.696;11.746;2022-08-25T02:33:04;6.65;;;5.25;;
71869;SDS011;59739;47.696;11.746;2022-08-25T02:35:30;6.25;;;5.65;;
71869;SDS011;59739;47.696;11.746;2022-08-25T02:37:56;5.88;;;5.30;;
71869;SDS011;59739;47.696;11.746;2022-08-25T02:40:22;6.10;;;5.55;;
71869;SDS011;59739;47.696;11.746;2022-08-25T02:42:49;6.05;;;5.50;;
71869;SDS011;59739;47.696;11.746;2022-08-25T02:45:15;5.97;;;5.38;;
71869;SDS011;59739;47.696;11.746;2022-08-25T02:47:42;6.35;;;5.75;;
71869;SDS011;59739;47.696;11.746;2022-08-25T02:50:10;6.15;;;5.50;;
71869;SDS011;59739;47.696;11.746;2022-08-25T02:52:37;5.72;;;5.22;;
71869;SDS011;59739;47.696;11.746;2022-08-25T02:55:06;6.10;;;5.50;;
71869;SDS011;59739;47.696;11.746;2022-08-25T02:57:35;6.32;;;5.32;;
71869;SDS011;59739;47.696;11.746;2022-08-25T03:00:01;5.85;;;5.35;;
71869;SDS011;59739;47.696;11.746;2022-08-25T03:02:30;5.57;;;5.07;;
71869;SDS011;59739;47.696;11.746;2022-08-25T03:04:56;5.13;;;4.68;;
71869;SDS011;59739;47.696;11.746;2022-08-25T03:07:22;5.47;;;4.97;;
71869;SDS011;59739;47.696;11.746;2022-08-25T03:09:48;6.07;;;5.47;;
71869;SDS011;59739;47.696;11.746;2022-08-25T03:12:14;6.32;;;5.72;;
71869;SDS011;59739;47.696;11.746;2022-08-25T03:14:41;6.25;;;5.60;;
71869;SDS011;59739;47.696;11.746;2022-08-25T03:17:07;5.82;;;5.30;;
71869;SDS011;59739;47.696;11.746;2022-08-25T03:19:34;5.65;;;5.15;;
71869;SDS011;59739;47.696;11.746;2022-08-25T03:22:00;6.18;;;5.55;;
71869;SDS011;59739;47.696;11.746;2022-08-25T03:24:26;6.32;;;5.72;;
71869;SDS011;59739;47.696;11.746;2022-08-25T03:26:52;6.18;;;5.60;;
71869;SDS011;59739;47.696;11.746;2022-08-25T03:29:41;6.28;;;5.68;;
71869;SDS011;59739;47.696;11.746;2022-08-25T03:32:07;6.80;;;5.63;;
71869;SDS011;59739;47.696;11.746;2022-08-25T03:34:33;5.40;;;4.90;;
71869;SDS011;59739;47.696;11.746;2022-08-25T03:36:59;6.43;;;5.82;;
71869;SDS011;59739;47.696;11.746;2022-08-25T03:39:26;6.60;;;5.90;;
71869;SDS011;59739;47.696;11.746;2022-08-25T03:41:53;6.10;;;5.60;;
71869;SDS011;59739;47.696;11.746;2022-08-25T03:44:19;6.20;;;5.70;;
71869;SDS011;59739;47.696;11.746;2022-08-25T03:46:47;6.40;;;5.35;;
71869;SDS011;59739;47.696;11.746;2022-08-25T03:49:18;8.50;;;5.97;;
71869;SDS011;59739;47.696;11.746;2022-08-25T03:51:47;8.85;;;5.90;;
71869;SDS011;59739;47.696;11.746;2022-08-25T03:54:15;5.68;;;5.15;;
71869;SDS011;59739;47.696;11.746;2022-08-25T03:56:45;6.53;;;5.93;;
71869;SDS011;59739;47.696;11.746;2022-08-25T03:59:11;5.85;;;5.35;;
71869;SDS011;59739;47.696;11.746;2022-08-25T04:01:38;6.15;;;5.47;;
71869;SDS011;59739;47.696;11.746;2022-08-25T04:04:06;6.30;;;5.70;;
71869;SDS011;59739;47.696;11.746;2022-08-25T04:06:33;6.35;;;5.60;;
71869;SDS011;59739;47.696;11.746;2022-08-25T04:09:00;7.10;;;6.03;;
71869;SDS011;59739;47.696;11.746;2022-08-25T04:11:26;7.18;;;5.63;;
71869;SDS011;59739;47.696;11.746;2022-08-25T04:13:54;7.30;;;6.60;;
71869;SDS011;59739;47.696;11.746;2022-08-25T04:16:23;7.00;;;6.20;;
71869;SDS011;59739;47.696;11.746;2022-08-25T04:18:54;6.80;;;6.20;;
71869;SDS011;59739;47.696;11.746;2022-08-25T04:21:22;6.68;;;5.97;;
71869;SDS011;59739;47.696;11.746;2022-08-25T04:23:48;6.65;;;5.90;;
71869;SDS011;59739;47.696;11.746;2022-08-25T04:26:21;6.45;;;5.85;;
71869;SDS011;59739;47.696;11.746;2022-08-25T04:28:56;7.35;;;6.18;;
71869;SDS011;59739;47.696;11.746;2022-08-25T04:31:24;6.88;;;6.18;;
71869;SDS011;59739;47.696;11.746;2022-08-25T04:33:51;6.32;;;5.72;;
71869;SDS011;59739;47.696;11.746;2022-08-25T04:36:17;6.38;;;5.78;;
71869;SDS011;59739;47.696;11.746;2022-08-25T04:38:45;8.82;;;6.40;;
71869;SDS011;59739;47.696;11.746;2022-08-25T04:41:14;5.97;;;5.38;;
71869;SDS011;59739;47.696;11.746;2022-08-25T04:43:43;7.05;;;6.30;;
71869;SDS011;59739;47.696;11.746;2022-08-25T04:46:14;6.93;;;6.18;;
71869;SDS011;59739;47.696;11.746;2022-08-25T04:48:44;6.85;;;6.15;;
71869;SDS011;59739;47.696;11.746;2022-08-25T04:51:12;6.50;;;5.28;;
71869;SDS011;59739;47.696;11.746;2022-08-25T04:53:47;6.45;;;5.85;;
71869;SDS011;59739;47.696;11.746;2022-08-25T04:56:15;6.80;;;6.20;;
71869;SDS011;59739;47.696;11.746;2022-08-25T04:58:44;6.38;;;5.78;;
71869;SDS011;59739;47.696;11.746;2022-08-25T05:01:15;6.85;;;6.15;;
71869;SDS011;59739;47.696;11.746;2022-08-25T05:03:46;7.10;;;6.38;;
71869;SDS011;59739;47.696;11.746;2022-08-25T05:06:16;6.57;;;5.97;;
71869;SDS011;59739;47.696;11.746;2022-08-25T05:08:42;6.72;;;5.93;;
71869;SDS011;59739;47.696;11.746;2022-08-25T05:11:10;10.15;;;6.22;;
71869;SDS011;59739;47.696;11.746;2022-08-25T05:13:38;6.32;;;5.72;;
71869;SDS011;59739;47.696;11.746;2022-08-25T05:16:05;6.55;;;5.95;;
71869;SDS011;59739;47.696;11.746;2022-08-25T05:18:32;6.60;;;6.00;;
71869;SDS011;59739;47.696;11.746;2022-08-25T05:21:03;8.27;;;6.03;;
71869;SDS011;59739;47.696;11.746;2022-08-25T05:23:31;6.95;;;6.25;;
71869;SDS011;59739;47.696;11.746;2022-08-25T05:26:05;8.70;;;6.30;;
71869;SDS011;59739;47.696;11.746;2022-08-25T05:28:35;7.00;;;6.30;;
71869;SDS011;59739;47.696;11.746;2022-08-25T05:31:04;7.05;;;6.35;;
71869;SDS011;59739;47.696;11.746;2022-08-25T05:33:32;7.10;;;6.50;;
71869;SDS011;59739;47.696;11.746;2022-08-25T05:35:59;7.30;;;6.60;;
71869;SDS011;59739;47.696;11.746;2022-08-25T05:38:26;7.68;;;6.90;;
71869;SDS011;59739;47.696;11.746;2022-08-25T05:40:55;7.32;;;6.70;;
71869;SDS011;59739;47.696;11.746;2022-08-25T05:43:28;7.60;;;6.80;;
71869;SDS011;59739;47.696;11.746;2022-08-25T05:45:56;8.35;;;6.88;;
71869;SDS011;59739;47.696;11.746;2022-08-25T05:48:23;6.35;;;5.75;;
71869;SDS011;59739;47.696;11.746;2022-08-25T05:50:55;6.45;;;5.88;;
71869;SDS011;59739;47.696;11.746;2022-08-25T05:53:24;7.10;;;5.75;;
71869;SDS011;59739;47.696;11.746;2022-08-25T05:55:52;7.05;;;5.85;;
71869;SDS011;59739;47.696;11.746;2022-08-25T05:58:20;6.32;;;5.50;;
71869;SDS011;59739;47.696;11.746;2022-08-25T06:00:47;7.22;;;5.90;;
71869;SDS011;59739;47.696;11.746;2022-08-25T06:03:13;6.68;;;6.03;;
71869;SDS011;59739;47.696;11.746;2022-08-25T06:05:39;6.60;;;6.00;;
71869;SDS011;59739;47.696;11.746;2022-08-25T06:08:05;6.68;;;6.03;;
71869;SDS011;59739;47.696;11.746;2022-08-25T06:10:32;8.07;;;7.28;;
71869;SDS011;59739;47.696;11.746;2022-08-25T06:12:59;7.20;;;6.57;;
71869;SDS011;59739;47.696;11.746;2022-08-25T06:15:25;7.03;;;6.22;;
71869;SDS011;59739;47.696;11.746;2022-08-25T06:17:51;6.13;;;5.30;;
71869;SDS011;59739;47.696;11.746;2022-08-25T06:20:22;6.00;;;5.50;;
71869;SDS011;59739;47.696;11.746;2022-08-25T06:22:51;5.68;;;5.18;;
71869;SDS011;59739;47.696;11.746;2022-08-25T06:25:20;6.55;;;5.88;;
71869;SDS011;59739;47.696;11.746;2022-08-25T06:27:48;7.25;;;5.75;;
71869;SDS011;59739;47.696;11.746;2022-08-25T06:30:17;5.80;;;5.30;;
71869;SDS011;59739;47.696;11.746;2022-08-25T06:32:45;7.63;;;5.28;;
71869;SDS011;59739;47.696;11.746;2022-08-25T06:35:13;5.53;;;5.03;;
71869;SDS011;59739;47.696;11.746;2022-08-25T06:37:43;5.80;;;5.20;;
71869;SDS011;59739;47.696;11.746;2022-08-25T06:40:10;5.60;;;5.07;;
71869;SDS011;59739;47.696;11.746;2022-08-25T06:42:37;7.20;;;5.50;;
71869;SDS011;59739;47.696;11.746;2022-08-25T06:45:04;5.30;;;4.80;;
71869;SDS011;59739;47.696;11.746;2022-08-25T06:47:32;6.60;;;5.13;;
71869;SDS011;59739;47.696;11.746;2022-08-25T06:49:58;5.60;;;5.00;;
71869;SDS011;59739;47.696;11.746;2022-08-25T06:52:24;5.10;;;4.60;;
71869;SDS011;59739;47.696;11.746;2022-08-25T06:54:50;5.38;;;4.88;;
71869;SDS011;59739;47.696;11.746;2022-08-25T06:57:17;6.40;;;4.65;;
71869;SDS011;59739;47.696;11.746;2022-08-25T06:59:43;5.28;;;4.78;;
71869;SDS011;59739;47.696;11.746;2022-08-25T07:02:09;5.50;;;4.30;;
71869;SDS011;59739;47.696;11.746;2022-08-25T07:04:35;5.18;;;4.68;;
71869;SDS011;59739;47.696;11.746;2022-08-25T07:07:01;4.90;;;4.50;;
71869;SDS011;59739;47.696;11.746;2022-08-25T07:09:28;5.43;;;4.45;;
71869;SDS011;59739;47.696;11.746;2022-08-25T07:11:54;4.85;;;4.35;;
71869;SDS011;59739;47.696;11.746;2022-08-25T07:14:20;4.88;;;4.38;;
71869;SDS011;59739;47.696;11.746;2022-08-25T07:16:46;5.53;;;4.43;;
71869;SDS011;59739;47.696;11.746;2022-08-25T07:19:12;5.03;;;4.53;;
71869;SDS011;59739;47.696;11.746;2022-08-25T07:21:40;4.30;;;4.00;;
71869;SDS011;59739;47.696;11.746;2022-08-25T07:24:10;4.90;;;4.50;;
71869;SDS011;59739;47.696;11.746;2022-08-25T07:26:38;5.40;;;4.35;;
71869;SDS011;59739;47.696;11.746;2022-08-25T07:29:27;4.95;;;4.55;;
71869;SDS011;59739;47.696;11.746;2022-08-25T07:31:54;5.70;;;3.88;;
71869;SDS011;59739;47.696;11.746;2022-08-25T07:34:20;5.70;;;4.35;;
71869;SDS011;59739;47.696;11.746;2022-08-25T07:37:05;5.82;;;4.53;;
71869;SDS011;59739;47.696;11.746;2022-08-25T07:39:31;4.95;;;4.03;;
71869;SDS011;59739;47.696;11.746;2022-08-25T07:41:58;4.22;;;3.92;;
71869;SDS011;59739;47.696;11.746;2022-08-25T07:44:24;4.47;;;4.07;;
71869;SDS011;59739;47.696;11.746;2022-08-25T07:46:51;4.03;;;3.72;;
71869;SDS011;59739;47.696;11.746;2022-08-25T07:49:19;4.25;;;3.95;;
71869;SDS011;59739;47.696;11.746;2022-08-25T07:51:46;4.40;;;4.10;;
71869;SDS011;59739;47.696;11.746;2022-08-25T07:54:12;4.25;;;3.92;;
71869;SDS011;59739;47.696;11.746;2022-08-25T07:56:39;4.55;;;4.18;;
71869;SDS011;59739;47.696;11.746;2022-08-25T07:59:07;4.60;;;4.15;;
71869;SDS011;59739;47.696;11.746;2022-08-25T08:01:34;4.70;;;4.32;;
71869;SDS011;59739;47.696;11.746;2022-08-25T08:04:00;4.45;;;4.10;;
71869;SDS011;59739;47.696;11.746;2022-08-25T08:06:26;4.85;;;4.28;;
71869;SDS011;59739;47.696;11.746;2022-08-25T08:08:52;4.50;;;4.10;;
71869;SDS011;59739;47.696;11.746;2022-08-25T08:11:20;4.50;;;4.00;;
71869;SDS011;59739;47.696;11.746;2022-08-25T08:13:58;5.55;;;4.13;;
71869;SDS011;59739;47.696;11.746;2022-08-25T08:16:26;4.22;;;3.92;;
71869;SDS011;59739;47.696;11.746;2022-08-25T08:18:54;4.22;;;3.92;;
71869;SDS011;59739;47.696;11.746;2022-08-25T08:21:22;4.88;;;4.40;;
71869;SDS011;59739;47.696;11.746;2022-08-25T08:23:51;4.18;;;3.80;;
71869;SDS011;59739;47.696;11.746;2022-08-25T08:26:18;6.45;;;4.40;;
71869;SDS011;59739;47.696;11.746;2022-08-25T08:28:45;4.40;;;4.00;;
71869;SDS011;59739;47.696;11.746;2022-08-25T08:31:11;4.53;;;4.22;;
71869;SDS011;59739;47.696;11.746;2022-08-25T08:33:38;4.50;;;4.10;;
71869;SDS011;59739;47.696;11.746;2022-08-25T08:36:05;4.70;;;4.30;;
71869;SDS011;59739;47.696;11.746;2022-08-25T08:38:35;4.80;;;4.40;;
71869;SDS011;59739;47.696;11.746;2022-08-25T08:55:44;4.95;;;4.45;;
71869;SDS011;59739;47.696;11.746;2022-08-25T08:58:17;4.85;;;4.40;;
71869;SDS011;59739;47.696;11.746;2022-08-25T09:01:01;4.22;;;3.72;;
71869;SDS011;59739;47.696;11.746;2022-08-25T09:03:31;4.35;;;4.05;;
71869;SDS011;59739;47.696;11.746;2022-08-25T09:06:09;4.68;;;4.28;;
71869;SDS011;59739;47.696;11.746;2022-08-25T09:08:41;4.57;;;4.18;;
71869;SDS011;59739;47.696;11.746;2022-08-25T09:11:22;4.65;;;4.05;;
71869;SDS011;59739;47.696;11.746;2022-08-25T09:14:28;4.10;;;3.80;;
71869;SDS011;59739;47.696;11.746;2022-08-25T09:33:49;4.95;;;4.38;;
71869;SDS011;59739;47.696;11.746;2022-08-25T09:36:21;4.97;;;4.57;;
71869;SDS011;59739;47.696;11.746;2022-08-25T09:38:48;4.10;;;3.80;;
71869;SDS011;59739;47.696;11.746;2022-08-25T09:41:21;5.60;;;4.53;;
71869;SDS011;59739;47.696;11.746;2022-08-25T09:44:22;4.63;;;4.05;;
71869;SDS011;59739;47.696;11.746;2022-08-25T09:49:30;4.60;;;4.20;;
71869;SDS011;59739;47.696;11.746;2022-08-25T09:52:23;5.10;;;4.60;;
71869;SDS011;59739;47.696;11.746;2022-08-25T09:54:53;4.40;;;3.97;;
71869;SDS011;59739;47.696;11.746;2022-08-25T09:59:56;5.60;;;4.82;;
71869;SDS011;59739;47.696;11.746;2022-08-25T10:02:33;5.07;;;4.68;;
71869;SDS011;59739;47.696;11.746;2022-08-25T10:05:00;4.72;;;4.35;;
71869;SDS011;59739;47.696;11.746;2022-08-25T10:07:49;5.13;;;4.28;;
71869;SDS011;59739;47.696;11.746;2022-08-25T10:10:34;4.95;;;4.47;;
71869;SDS011;59739;47.696;11.746;2022-08-25T10:13:17;4.60;;;4.20;;
71869;SDS011;59739;47.696;11.746;2022-08-25T10:15:45;5.45;;;4.60;;
71869;SDS011;59739;47.696;11.746;2022-08-25T10:18:23;4.78;;;4.38;;
71869;SDS011;59739;47.696;11.746;2022-08-25T10:23:36;4.70;;;4.32;;
71869;SDS011;59739;47.696;11.746;2022-08-25T10:26:12;4.45;;;3.88;;
71869;SDS011;59739;47.696;11.746;2022-08-25T10:29:15;5.05;;;4.63;;
71869;SDS011;59739;47.696;11.746;2022-08-25T10:32:11;4.75;;;4.28;;
71869;SDS011;59739;47.696;11.746;2022-08-25T10:34:55;4.70;;;4.30;;
71869;SDS011;59739;47.696;11.746;2022-08-25T10:40:39;5.07;;;4.57;;
71869;SDS011;59739;47.696;11.746;2022-08-25T10:48:50;4.97;;;4.57;;
71869;SDS011;59739;47.696;11.746;2022-08-25T10:53:57;5.38;;;4.90;;
71869;SDS011;59739;47.696;11.746;2022-08-25T10:56:33;6.68;;;4.97;;
71869;SDS011;59739;47.696;11.746;2022-08-25T11:05:08;5.60;;;4.57;;
71869;SDS011;59739;47.696;11.746;2022-08-25T11:07:46;4.63;;;4.28;;
71869;SDS011;59739;47.696;11.746;2022-08-25T11:10:24;4.93;;;4.53;;
71869;SDS011;59739;47.696;11.746;2022-08-25T11:13:14;5.05;;;4.65;;
71869;SDS011;59739;47.696;11.746;2022-08-25T11:16:05;5.40;;;4.85;;
71869;SDS011;59739;47.696;11.746;2022-08-25T11:18:41;4.78;;;4.35;;
71869;SDS011;59739;47.696;11.746;2022-08-25T11:21:17;4.90;;;4.50;;
71869;SDS011;59739;47.696;11.746;2022-08-25T11:27:01;5.38;;;4.88;;
71869;SDS011;59739;47.696;11.746;2022-08-25T11:29:32;4.65;;;4.25;;
71869;SDS011;59739;47.696;11.746;2022-08-25T11:32:02;4.95;;;4.50;;
71869;SDS011;59739;47.696;11.746;2022-08-25T11:34:30;5.03;;;4.60;;
71869;SDS011;59739;47.696;11.746;2022-08-25T11:37:10;5.00;;;4.57;;
71869;SDS011;59739;47.696;11.746;2022-08-25T11:46:16;4.78;;;4.32;;
71869;SDS011;59739;47.696;11.746;2022-08-25T11:51:41;4.80;;;4.40;;
71869;SDS011;59739;47.696;11.746;2022-08-25T11:54:19;5.50;;;4.72;;
71869;SDS011;59739;47.696;11.746;2022-08-25T11:57:02;4.90;;;4.50;;
71869;SDS011;59739;47.696;11.746;2022-08-25T12:02:27;4.75;;;4.13;;
71869;SDS011;59739;47.696;11.746;2022-08-25T12:04:58;5.03;;;4.57;;
71869;SDS011;59739;47.696;11.746;2022-08-25T12:07:29;4.63;;;4.22;;
71869;SDS011;59739;47.696;11.746;2022-08-25T12:13:26;4.88;;;4.47;;
71869;SDS011;59739;47.696;11.746;2022-08-25T12:21:53;5.00;;;4.60;;
71869;SDS011;59739;47.696;11.746;2022-08-25T12:28:09;5.68;;;4.57;;
71869;SDS011;59739;47.696;11.746;2022-08-25T12:30:57;4.70;;;4.30;;
71869;SDS011;59739;47.696;11.746;2022-08-25T12:36:47;5.40;;;4.32;;
71869;SDS011;59739;47.696;11.746;2022-08-25T12:39:30;5.05;;;4.55;;
71869;SDS011;59739;47.696;11.746;2022-08-25T12:42:06;4.50;;;4.20;;
71869;SDS011;59739;47.696;11.746;2022-08-25T12:53:48;4.43;;;3.40;;
71869;SDS011;59739;47.696;11.746;2022-08-25T12:56:24;5.18;;;3.38;;
71869;SDS011;59739;47.696;11.746;2022-08-25T13:04:31;4.30;;;3.30;;
71869;SDS011;59739;47.696;11.746;2022-08-25T13:16:17;3.60;;;2.85;;
71869;SDS011;59739;47.696;11.746;2022-08-25T13:18:51;3.40;;;3.10;;
71869;SDS011;59739;47.696;11.746;2022-08-25T13:21:27;3.08;;;2.88;;
71869;SDS011;59739;47.696;11.746;2022-08-25T13:24:08;2.78;;;2.50;;
71869;SDS011;59739;47.696;11.746;2022-08-25T13:26:55;3.00;;;2.80;;
71869;SDS011;59739;47.696;11.746;2022-08-25T13:29:27;2.92;;;2.72;;
71869;SDS011;59739;47.696;11.746;2022-08-25T13:34:32;3.35;;;3.05;;
71869;SDS011;59739;47.696;11.746;2022-08-25T13:37:10;3.53;;;3.22;;
71869;SDS011;59739;47.696;11.746;2022-08-25T13:40:37;2.70;;;2.50;;
71869;SDS011;59739;47.696;11.746;2022-08-25T13:42:59;3.30;;;2.70;;
71869;SDS011;59739;47.696;11.746;2022-08-25T13:48:01;3.63;;;3.33;;
71869;SDS011;59739;47.696;11.746;2022-08-25T13:50:32;3.30;;;3.00;;
71869;SDS011;59739;47.696;11.746;2022-08-25T13:53:23;3.30;;;3.00;;
71869;SDS011;59739;47.696;11.746;2022-08-25T13:55:53;3.58;;;3.08;;
71869;SDS011;59739;47.696;11.746;2022-08-25T13:58:25;3.75;;;3.38;;
71869;SDS011;59739;47.696;11.746;2022-08-25T14:01:07;3.20;;;3.00;;
71869;SDS011;59739;47.696;11.746;2022-08-25T14:03:46;3.38;;;3.08;;
71869;SDS011;59739;47.696;11.746;2022-08-25T14:08:46;3.70;;;3.40;;
71869;SDS011;59739;47.696;11.746;2022-08-25T14:14:13;3.15;;;2.83;;
71869;SDS011;59739;47.696;11.746;2022-08-25T14:17:04;3.13;;;2.80;;
71869;SDS011;59739;47.696;11.746;2022-08-25T14:19:34;2.70;;;2.50;;
71869;SDS011;59739;47.696;11.746;2022-08-25T14:22:08;3.40;;;2.90;;
71869;SDS011;59739;47.696;11.746;2022-08-25T14:24:36;2.95;;;2.75;;
71869;SDS011;59739;47.696;11.746;2022-08-25T14:27:03;4.75;;;3.00;;
71869;SDS011;59739;47.696;11.746;2022-08-25T14:29:30;2.88;;;2.67;;
71869;SDS011;59739;47.696;11.746;2022-08-25T14:31:56;3.33;;;2.67;;
71869;SDS011;59739;47.696;11.746;2022-08-25T14:34:25;3.15;;;2.95;;
71869;SDS011;59739;47.696;11.746;2022-08-25T14:36:55;3.25;;;2.92;;
71869;SDS011;59739;47.696;11.746;2022-08-25T14:39:24;3.13;;;2.75;;
71869;SDS011;59739;47.696;11.746;2022-08-25T14:41:50;3.72;;;2.85;;
71869;SDS011;59739;47.696;11.746;2022-08-25T14:44:18;3.20;;;3.00;;
71869;SDS011;59739;47.696;11.746;2022-08-25T14:46:48;3.40;;;3.10;;
71869;SDS011;59739;47.696;11.746;2022-08-25T14:49:20;3.53;;;3.22;;
71869;SDS011;59739;47.696;11.746;2022-08-25T14:51:53;3.20;;;2.90;;
71869;SDS011;59739;47.696;11.746;2022-08-25T14:54:23;3.28;;;2.80;;
71869;SDS011;59739;47.696;11.746;2022-08-25T14:56:51;5.47;;;2.90;;
71869;SDS011;59739;47.696;11.746;2022-08-25T14:59:17;6.40;;;3.08;;
71869;SDS011;59739;47.696;11.746;2022-08-25T15:01:44;4.05;;;2.97;;
71869;SDS011;59739;47.696;11.746;2022-08-25T15:04:11;3.67;;;3.38;;
71869;SDS011;59739;47.696;11.746;2022-08-25T15:06:54;3.25;;;2.95;;
71869;SDS011;59739;47.696;11.746;2022-08-25T15:09:22;3.58;;;3.28;;
71869;SDS011;59739;47.696;11.746;2022-08-25T15:11:49;3.20;;;2.90;;
71869;SDS011;59739;47.696;11.746;2022-08-25T15:14:21;3.10;;;2.90;;
71869;SDS011;59739;47.696;11.746;2022-08-25T15:16:53;3.38;;;3.08;;
71869;SDS011;59739;47.696;11.746;2022-08-25T15:21:49;5.72;;;3.05;;
71869;SDS011;59739;47.696;11.746;2022-08-25T15:24:16;5.60;;;3.10;;
71869;SDS011;59739;47.696;11.746;2022-08-25T15:26:56;3.80;;;3.40;;
71869;SDS011;59739;47.696;11.746;2022-08-25T15:29:25;3.65;;;3.35;;
71869;SDS011;59739;47.696;11.746;2022-08-25T15:31:54;3.55;;;3.00;;
71869;SDS011;59739;47.696;11.746;2022-08-25T15:34:21;3.97;;;3.53;;
71869;SDS011;59739;47.696;11.746;2022-08-25T15:36:47;3.58;;;3.30;;
71869;SDS011;59739;47.696;11.746;2022-08-25T15:39:14;3.75;;;3.10;;
71869;SDS011;59739;47.696;11.746;2022-08-25T15:41:40;3.72;;;3.42;;
71869;SDS011;59739;47.696;11.746;2022-08-25T15:44:06;3.60;;;3.30;;
71869;SDS011;59739;47.696;11.746;2022-08-25T15:46:35;3.47;;;3.17;;
71869;SDS011;59739;47.696;11.746;2022-08-25T15:49:02;3.80;;;3.50;;
71869;SDS011;59739;47.696;11.746;2022-08-25T15:51:29;3.80;;;3.10;;
71869;SDS011;59739;47.696;11.746;2022-08-25T15:53:55;4.05;;;3.50;;
71869;SDS011;59739;47.696;11.746;2022-08-25T15:56:22;3.30;;;3.00;;
71869;SDS011;59739;47.696;11.746;2022-08-25T15:58:49;4.65;;;3.00;;
71869;SDS011;59739;47.696;11.746;2022-08-25T16:01:17;4.80;;;3.42;;
71869;SDS011;59739;47.696;11.746;2022-08-25T16:03:47;3.33;;;3.03;;
71869;SDS011;59739;47.696;11.746;2022-08-25T16:06:14;3.83;;;3.15;;
71869;SDS011;59739;47.696;11.746;2022-08-25T16:08:41;3.55;;;3.25;;
71869;SDS011;59739;47.696;11.746;2022-08-25T16:11:15;4.93;;;3.40;;
71869;SDS011;59739;47.696;11.746;2022-08-25T16:13:44;4.47;;;3.35;;
71869;SDS011;59739;47.696;11.746;2022-08-25T16:16:12;3.75;;;3.42;;
71869;SDS011;59739;47.696;11.746;2022-08-25T16:18:39;3.67;;;3.20;;
71869;SDS011;59739;47.696;11.746;2022-08-25T16:21:08;3.60;;;3.30;;
71869;SDS011;59739;47.696;11.746;2022-08-25T16:23:37;4.00;;;3.70;;
71869;SDS011;59739;47.696;11.746;2022-08-25T16:26:04;4.88;;;3.55;;
71869;SDS011;59739;47.696;11.746;2022-08-25T16:28:34;6.93;;;3.80;;
71869;SDS011;59739;47.696;11.746;2022-08-25T16:31:02;4.32;;;3.75;;
71869;SDS011;59739;47.696;11.746;2022-08-25T16:33:28;4.55;;;3.65;;
71869;SDS011;59739;47.696;11.746;2022-08-25T16:36:04;3.88;;;3.58;;
71869;SDS011;59739;47.696;11.746;2022-08-25T16:38:40;4.57;;;3.70;;
71869;SDS011;59739;47.696;11.746;2022-08-25T16:41:08;4.90;;;4.18;;
71869;SDS011;59739;47.696;11.746;2022-08-25T16:43:40;7.20;;;3.95;;
71869;SDS011;59739;47.696;11.746;2022-08-25T16:46:07;5.13;;;3.80;;
71869;SDS011;59739;47.696;11.746;2022-08-25T16:48:36;5.90;;;4.35;;
71869;SDS011;59739;47.696;11.746;2022-08-25T16:51:07;7.15;;;4.50;;
71869;SDS011;59739;47.696;11.746;2022-08-25T16:53:36;5.22;;;4.35;;
71869;SDS011;59739;47.696;11.746;2022-08-25T16:56:21;7.40;;;4.30;;
71869;SDS011;59739;47.696;11.746;2022-08-25T16:58:57;6.72;;;5.18;;
71869;SDS011;59739;47.696;11.746;2022-08-25T17:01:26;8.25;;;4.95;;
71869;SDS011;59739;47.696;11.746;2022-08-25T17:03:55;6.82;;;5.38;;
71869;SDS011;59739;47.696;11.746;2022-08-25T17:06:23;11.27;;;5.30;;
71869;SDS011;59739;47.696;11.746;2022-08-25T17:08:51;6.60;;;5.10;;
71869;SDS011;59739;47.696;11.746;2022-08-25T17:11:21;7.35;;;4.85;;
71869;SDS011;59739;47.696;11.746;2022-08-25T17:13:55;7.32;;;5.18;;